Number Eight, Missouri
Current Conditions -  °F | °C
As of 12:55 PM on Friday 24 Oct 2014 (Local Time) from KIRK Reporting Station
Haze Haze  
Wind Chill: 62°   Ceiling: 400
Heat Index: 62°   Visibility: 2.5mi
Dew Point: 61°   Wind: 14mph
Humidity: 96%   Direction: 170°S
Pressure: 30.03"   Gusts: NA
Location:  39.7769°N, 92.5616°W
Report Text: KIRK 241755Z AUTO 17012KT 2 1/2SM BR OVC004 17/16 A3003 RMK AO2 SLP171 T01670161 10167 20128 56014
Loading
Personal Weather Stations






























Interactive Weather Map
Tropical Storm Tracking
New forecast layout! Learn more

10-Day Weather Forecast

Advertisements
Track Severe Weather on mobile